Time;durP1;ratioP1;P1;durP2;ratioP2;P2;SDS_P1;SDS_P2;PMS_P1;PMS_P2;Temp;Humidity;BMP_temperature;BMP_pressure;BME280_temperature;BME280_humidity;BME280_pressure;Samples;Min_cycle;Max_cycle;Signal;HPM_P1;HPM_P2
2023/05/06 00:01:38;;;;;;;17.83;13.47;;;;;;;;;;5014577;28;20439;-70
2023/05/06 00:04:05;;;;;;;15.27;12.20;;;;;;;;;;5014027;28;20455;-70
2023/05/06 00:06:33;;;;;;;17.77;12.87;;;;;;;;;;5014378;28;20493;-70
2023/05/06 00:09:00;;;;;;;13.63;12.17;;;;;;;;;;5014418;28;20447;-71
2023/05/06 00:11:28;;;;;;;13.83;12.30;;;;;;;;;;5014634;28;20479;-70
2023/05/06 00:13:55;;;;;;;17.03;14.60;;;;;;;;;;5014285;28;20444;-70
2023/05/06 00:16:22;;;;;;;17.07;13.23;;;;;;;;;;5014141;28;20445;-70
2023/05/06 00:18:50;;;;;;;12.47;11.17;;;;;;;;;;5014216;28;20442;-70
2023/05/06 00:21:18;;;;;;;15.23;12.60;;;;;;;;;;5014051;28;20454;-70
2023/05/06 00:23:45;;;;;;;18.00;15.17;;;;;;;;;;5013772;28;20537;-70
2023/05/06 00:26:12;;;;;;;16.27;13.03;;;;;;;;;;5014107;28;20810;-70
2023/05/06 00:28:39;;;;;;;14.47;12.17;;;;;;;;;;5014060;28;20439;-70
2023/05/06 00:31:08;;;;;;;15.23;12.73;;;;;;;;;;5013828;28;20503;-70
2023/05/06 00:33:35;;;;;;;15.80;13.77;;;;;;;;;;5013982;28;20451;-70
2023/05/06 00:36:04;;;;;;;17.40;14.47;;;;;;;;;;5013844;28;20447;-70
2023/05/06 00:38:31;;;;;;;14.93;13.33;;;;;;;;;;5013634;28;20479;-70
2023/05/06 00:40:58;;;;;;;15.57;13.80;;;;;;;;;;5013534;28;20455;-70
2023/05/06 00:43:25;;;;;;;15.17;13.47;;;;;;;;;;5013547;28;20457;-70
2023/05/06 00:45:52;;;;;;;19.30;14.60;;;;;;;;;;5013382;28;20443;-70
2023/05/06 00:48:20;;;;;;;18.13;16.03;;;;;;;;;;5013794;28;20439;-70
2023/05/06 00:50:47;;;;;;;17.30;14.10;;;;;;;;;;5013942;28;20477;-70
2023/05/06 00:53:15;;;;;;;16.50;14.57;;;;;;;;;;5013464;28;20947;-70
2023/05/06 00:55:43;;;;;;;18.00;14.53;;;;;;;;;;5013375;28;20450;-70
2023/05/06 00:58:10;;;;;;;18.20;14.53;;;;;;;;;;5013657;28;20447;-70
2023/05/06 01:00:37;;;;;;;17.30;15.50;;;;;;;;;;5014161;28;20462;-70
2023/05/06 01:03:04;;;;;;;18.00;14.50;;;;;;;;;;5017698;28;20447;-70
2023/05/06 01:05:33;;;;;;;23.17;15.13;;;;;;;;;;5018069;28;20445;-70
2023/05/06 01:08:04;;;;;;;21.40;15.83;;;;;;;;;;5017732;28;20815;-70
2023/05/06 01:10:36;;;;;;;17.50;14.70;;;;;;;;;;5017601;28;20518;-70
2023/05/06 01:13:06;;;;;;;16.50;14.17;;;;;;;;;;5017797;28;20428;-70
2023/05/06 01:15:34;;;;;;;18.03;16.10;;;;;;;;;;5017169;28;20921;-70
2023/05/06 01:18:02;;;;;;;17.20;13.83;;;;;;;;;;5017487;28;20448;-70
2023/05/06 01:20:30;;;;;;;16.30;14.60;;;;;;;;;;5017593;28;20789;-70
2023/05/06 01:22:57;;;;;;;15.80;14.10;;;;;;;;;;5017468;28;20443;-70
2023/05/06 01:25:26;;;;;;;15.23;13.60;;;;;;;;;;5016968;28;20443;-70
2023/05/06 01:27:53;;;;;;;18.30;14.90;;;;;;;;;;5017665;28;20445;-70
2023/05/06 01:30:21;;;;;;;18.30;15.43;;;;;;;;;;5017165;28;20447;-70
2023/05/06 01:32:53;;;;;;;15.97;14.37;;;;;;;;;;5017358;28;20475;-70
2023/05/06 01:35:23;;;;;;;19.33;15.27;;;;;;;;;;5016797;28;20423;-70
2023/05/06 01:37:53;;;;;;;16.70;15.00;;;;;;;;;;5016748;28;20476;-70
2023/05/06 01:40:21;;;;;;;17.80;15.10;;;;;;;;;;5017088;28;20507;-70
2023/05/06 01:42:50;;;;;;;19.90;15.67;;;;;;;;;;5017190;28;20471;-70
2023/05/06 01:45:18;;;;;;;16.10;14.50;;;;;;;;;;5017030;28;20435;-70
2023/05/06 01:47:46;;;;;;;19.03;14.97;;;;;;;;;;5016539;28;20933;-70
2023/05/06 01:50:13;;;;;;;15.40;13.60;;;;;;;;;;5016908;28;20443;-70
2023/05/06 01:52:41;;;;;;;16.83;14.63;;;;;;;;;;5016622;28;20478;-70
2023/05/06 01:55:08;;;;;;;18.27;14.63;;;;;;;;;;5016511;28;20504;-70
2023/05/06 01:57:36;;;;;;;15.80;14.10;;;;;;;;;;5016631;28;20443;-70
2023/05/06 02:00:05;;;;;;;17.03;15.07;;;;;;;;;;5016861;28;20462;-70
2023/05/06 02:02:32;;;;;;;18.70;13.90;;;;;;;;;;5016630;28;20451;-70
2023/05/06 02:04:59;;;;;;;18.00;15.37;;;;;;;;;;5016690;28;20450;-70
2023/05/06 02:07:26;;;;;;;21.03;15.70;;;;;;;;;;5016342;28;20447;-70
2023/05/06 02:09:53;;;;;;;19.70;16.53;;;;;;;;;;5016395;28;20450;-70
2023/05/06 02:12:20;;;;;;;18.87;15.07;;;;;;;;;;5016393;28;20481;-70
2023/05/06 02:14:47;;;;;;;20.87;16.07;;;;;;;;;;5016867;28;20444;-70
2023/05/06 02:17:16;;;;;;;22.13;17.40;;;;;;;;;;5016248;28;20442;-70
2023/05/06 02:19:43;;;;;;;28.30;21.07;;;;;;;;;;5016029;28;20452;-70
2023/05/06 02:22:11;;;;;;;21.60;18.57;;;;;;;;;;5015872;28;20927;-70
2023/05/06 02:24:38;;;;;;;28.33;19.90;;;;;;;;;;5016800;28;20846;-70
2023/05/06 02:27:05;;;;;;;27.30;20.50;;;;;;;;;;5016333;28;20831;-70
2023/05/06 02:29:32;;;;;;;28.60;21.67;;;;;;;;;;5016556;28;20473;-70
2023/05/06 02:31:59;;;;;;;23.30;19.33;;;;;;;;;;5016340;28;20480;-70
2023/05/06 02:34:28;;;;;;;24.00;18.80;;;;;;;;;;5015751;28;20927;-70
2023/05/06 02:36:55;;;;;;;20.20;18.00;;;;;;;;;;5015971;28;20443;-70
2023/05/06 02:39:23;;;;;;;21.13;17.67;;;;;;;;;;5015740;28;20468;-70
2023/05/06 02:41:50;;;;;;;18.27;15.97;;;;;;;;;;5015825;28;20533;-70
2023/05/06 02:44:17;;;;;;;20.40;17.70;;;;;;;;;;5015886;28;20451;-70
2023/05/06 02:46:44;;;;;;;20.53;18.07;;;;;;;;;;5015719;28;20450;-70
2023/05/06 02:49:11;;;;;;;19.27;16.87;;;;;;;;;;5015852;28;20451;-70
2023/05/06 02:51:40;;;;;;;20.47;17.00;;;;;;;;;;5015274;28;20985;-70
2023/05/06 02:54:07;;;;;;;19.43;15.63;;;;;;;;;;5015712;28;20441;-70
2023/05/06 02:56:35;;;;;;;30.73;16.60;;;;;;;;;;5015573;28;20444;-70
2023/05/06 02:59:02;;;;;;;40.87;19.00;;;;;;;;;;5015923;28;20451;-70
2023/05/06 03:01:29;;;;;;;38.23;18.53;;;;;;;;;;5015607;28;20447;-70
2023/05/06 03:03:57;;;;;;;46.03;19.23;;;;;;;;;;5015199;28;20505;-70
2023/05/06 03:06:24;;;;;;;47.03;20.07;;;;;;;;;;5015157;28;20444;-70
2023/05/06 03:08:52;;;;;;;45.97;21.67;;;;;;;;;;5015603;28;20456;-70
2023/05/06 03:11:20;;;;;;;46.10;20.07;;;;;;;;;;5015501;28;20498;-70
2023/05/06 03:13:47;;;;;;;44.30;19.30;;;;;;;;;;5014889;28;20444;-70
2023/05/06 03:16:14;;;;;;;47.70;20.40;;;;;;;;;;5014970;28;20442;-70
2023/05/06 03:18:41;;;;;;;48.33;18.93;;;;;;;;;;5015165;28;20442;-70
2023/05/06 03:21:09;;;;;;;65.07;22.20;;;;;;;;;;5015216;28;20530;-70
2023/05/06 03:23:37;;;;;;;102.50;20.03;;;;;;;;;;5014653;28;20475;-70
2023/05/06 03:26:05;;;;;;;49.93;19.20;;;;;;;;;;5015184;28;20448;-70
2023/05/06 03:28:32;;;;;;;48.90;19.33;;;;;;;;;;5014979;28;20448;-70
2023/05/06 03:31:00;;;;;;;48.77;18.70;;;;;;;;;;5014723;28;20443;-70
2023/05/06 03:33:27;;;;;;;71.37;19.37;;;;;;;;;;5014463;28;21019;-71
2023/05/06 03:35:54;;;;;;;27.93;17.77;;;;;;;;;;5015025;28;20461;-70
2023/05/06 03:38:21;;;;;;;31.20;17.00;;;;;;;;;;5014414;28;20577;-69
2023/05/06 03:40:48;;;;;;;32.67;16.40;;;;;;;;;;5014958;28;20454;-70
2023/05/06 03:43:17;;;;;;;40.47;17.73;;;;;;;;;;5014409;28;20446;-69
2023/05/06 03:45:44;;;;;;;35.90;17.87;;;;;;;;;;5014453;28;20443;-69
2023/05/06 03:48:11;;;;;;;32.20;17.50;;;;;;;;;;5012347;28;20458;-69
2023/05/06 03:50:39;;;;;;;45.17;17.53;;;;;;;;;;5014634;28;20451;-69
2023/05/06 03:53:06;;;;;;;33.30;17.37;;;;;;;;;;5014629;28;20507;-70
2023/05/06 03:55:33;;;;;;;37.50;19.47;;;;;;;;;;5014531;28;20439;-70
2023/05/06 03:58:01;;;;;;;27.30;16.13;;;;;;;;;;5014362;28;20443;-70
2023/05/06 04:00:30;;;;;;;23.67;14.87;;;;;;;;;;5014113;28;20454;-70
2023/05/06 04:02:57;;;;;;;23.27;13.40;;;;;;;;;;5014321;28;20439;-69
2023/05/06 04:05:24;;;;;;;22.02;13.50;;;;;;;;;;5014330;28;20451;-69
2023/05/06 04:07:51;;;;;;;18.93;11.50;;;;;;;;;;5014117;28;20211;-69
2023/05/06 04:10:18;;;;;;;17.53;12.83;;;;;;;;;;5014282;28;20454;-70
2023/05/06 04:12:46;;;;;;;17.80;12.77;;;;;;;;;;5013724;28;20473;-70
2023/05/06 04:15:13;;;;;;;26.77;13.23;;;;;;;;;;5013963;28;20449;-69
2023/05/06 04:17:41;;;;;;;18.10;12.77;;;;;;;;;;5010317;28;20444;-70
2023/05/06 04:20:10;;;;;;;22.37;11.80;;;;;;;;;;4994498;28;20450;-69
2023/05/06 04:22:37;;;;;;;23.40;12.90;;;;;;;;;;4994057;28;20444;-69
2023/05/06 04:25:05;;;;;;;24.70;12.17;;;;;;;;;;4994438;28;20248;-69
2023/05/06 04:27:32;;;;;;;24.83;11.20;;;;;;;;;;4994347;28;20454;-70
2023/05/06 04:29:59;;;;;;;21.97;13.53;;;;;;;;;;4994395;28;20912;-69
2023/05/06 04:32:27;;;;;;;19.15;13.32;;;;;;;;;;4994562;28;20488;-69
2023/05/06 04:34:56;;;;;;;30.03;14.10;;;;;;;;;;4994099;28;20583;-70
2023/05/06 04:37:23;;;;;;;24.37;12.63;;;;;;;;;;4992964;28;20476;-69
2023/05/06 04:39:50;;;;;;;23.50;13.00;;;;;;;;;;4993707;28;20448;-69
2023/05/06 04:42:17;;;;;;;26.23;13.63;;;;;;;;;;4994262;28;20881;-69
2023/05/06 04:44:44;;;;;;;30.03;11.50;;;;;;;;;;4994153;28;20804;-69
2023/05/06 04:47:12;;;;;;;15.87;11.50;;;;;;;;;;4994232;28;20467;-69
2023/05/06 04:49:39;;;;;;;31.83;12.47;;;;;;;;;;4993540;28;20450;-70
2023/05/06 04:52:08;;;;;;;26.90;12.63;;;;;;;;;;4993627;28;20479;-69
2023/05/06 04:54:35;;;;;;;41.37;15.07;;;;;;;;;;4993987;28;20509;-69
2023/05/06 04:57:03;;;;;;;43.37;14.00;;;;;;;;;;4993967;28;20456;-69
2023/05/06 04:59:30;;;;;;;30.07;12.27;;;;;;;;;;4993812;28;20455;-70
2023/05/06 05:01:57;;;;;;;31.83;13.90;;;;;;;;;;4993921;28;20444;-70
2023/05/06 05:04:25;;;;;;;29.73;12.20;;;;;;;;;;4993831;28;20451;-69
2023/05/06 05:06:52;;;;;;;25.70;13.77;;;;;;;;;;4993665;28;20483;-69
2023/05/06 05:09:21;;;;;;;47.50;14.00;;;;;;;;;;4993835;28;20433;-69
2023/05/06 05:11:48;;;;;;;42.70;12.57;;;;;;;;;;4993732;28;20454;-69
2023/05/06 05:14:15;;;;;;;51.77;16.23;;;;;;;;;;4994074;28;20445;-70
2023/05/06 05:16:42;;;;;;;39.83;16.10;;;;;;;;;;4994186;28;20463;-70
2023/05/06 05:19:09;;;;;;;31.47;15.67;;;;;;;;;;4993771;28;20451;-70
2023/05/06 05:21:37;;;;;;;53.67;18.97;;;;;;;;;;4993749;28;20548;-69
2023/05/06 05:24:04;;;;;;;37.13;15.33;;;;;;;;;;4993629;28;20457;-70
2023/05/06 05:26:32;;;;;;;40.97;14.70;;;;;;;;;;4993705;28;20866;-69
2023/05/06 05:29:00;;;;;;;29.43;15.43;;;;;;;;;;4993568;28;20445;-69
2023/05/06 05:31:27;;;;;;;41.10;14.30;;;;;;;;;;4993671;28;20444;-69
2023/05/06 05:33:54;;;;;;;27.93;13.60;;;;;;;;;;4993447;28;20506;-70
2023/05/06 05:36:22;;;;;;;36.97;13.47;;;;;;;;;;4993361;28;20451;-70
2023/05/06 05:38:49;;;;;;;32.50;14.73;;;;;;;;;;4993677;28;20488;-69
2023/05/06 05:41:16;;;;;;;36.73;17.80;;;;;;;;;;4993618;28;20478;-68
2023/05/06 05:43:45;;;;;;;55.63;25.67;;;;;;;;;;4993454;28;20521;-68
2023/05/06 05:46:12;;;;;;;50.93;24.07;;;;;;;;;;4993282;28;20451;-69
2023/05/06 05:48:40;;;;;;;51.50;23.97;;;;;;;;;;4996125;28;21012;-69
2023/05/06 05:51:07;;;;;;;48.23;23.83;;;;;;;;;;4996918;28;20440;-70
2023/05/06 05:53:34;;;;;;;54.80;25.53;;;;;;;;;;4996967;28;20633;-68
2023/05/06 05:56:01;;;;;;;44.43;23.40;;;;;;;;;;4997005;28;20444;-69
2023/05/06 05:58:28;;;;;;;56.83;23.53;;;;;;;;;;4997340;28;20440;-68
2023/05/06 06:00:57;;;;;;;54.60;24.83;;;;;;;;;;4996962;28;20535;-68
2023/05/06 06:03:24;;;;;;;53.10;23.57;;;;;;;;;;4996866;28;20445;-71
2023/05/06 06:05:54;;;;;;;39.53;21.03;;;;;;;;;;4996570;28;20441;-70
2023/05/06 06:08:21;;;;;;;29.70;19.00;;;;;;;;;;4996443;28;20973;-72
2023/05/06 06:10:48;;;;;;;23.43;16.27;;;;;;;;;;4996427;28;20441;-72
2023/05/06 06:13:15;;;;;;;29.50;16.67;;;;;;;;;;4996321;28;20471;-72
2023/05/06 06:15:42;;;;;;;29.63;15.37;;;;;;;;;;4996575;28;20451;-70
2023/05/06 06:18:11;;;;;;;25.63;15.50;;;;;;;;;;4996345;28;20438;-72
2023/05/06 06:20:38;;;;;;;22.70;15.83;;;;;;;;;;4996238;28;20452;-72
2023/05/06 06:23:05;;;;;;;30.40;18.40;;;;;;;;;;4996274;28;21025;-72
2023/05/06 06:25:32;;;;;;;28.77;18.03;;;;;;;;;;4996147;28;20915;-72
2023/05/06 06:28:00;;;;;;;29.17;17.40;;;;;;;;;;4996202;28;20448;-70
2023/05/06 06:30:27;;;;;;;30.27;19.40;;;;;;;;;;4996310;28;20450;-69
2023/05/06 06:32:55;;;;;;;27.07;18.23;;;;;;;;;;4996524;28;20473;-70
2023/05/06 06:35:23;;;;;;;28.93;17.57;;;;;;;;;;4995925;28;20496;-70
2023/05/06 06:37:51;;;;;;;24.47;16.53;;;;;;;;;;4995812;28;20487;-70
2023/05/06 06:40:18;;;;;;;25.20;17.80;;;;;;;;;;4996489;28;20791;-70
2023/05/06 06:42:46;;;;;;;33.77;20.17;;;;;;;;;;4996204;28;20450;-70
2023/05/06 06:45:14;;;;;;;47.37;23.80;;;;;;;;;;4995840;28;20461;-70
2023/05/06 06:47:41;;;;;;;52.63;26.50;;;;;;;;;;4995934;28;20453;-70
2023/05/06 06:50:09;;;;;;;50.73;26.53;;;;;;;;;;4995770;28;20450;-70
2023/05/06 06:52:37;;;;;;;53.80;25.20;;;;;;;;;;4996011;28;20445;-70
2023/05/06 06:55:05;;;;;;;46.20;25.03;;;;;;;;;;4995587;28;20457;-70
2023/05/06 06:57:32;;;;;;;52.97;28.50;;;;;;;;;;4995927;28;20556;-70
2023/05/06 06:59:59;;;;;;;40.70;24.87;;;;;;;;;;4994865;28;20442;-70
2023/05/06 07:02:26;;;;;;;36.57;21.53;;;;;;;;;;4995817;28;20447;-69
2023/05/06 07:04:54;;;;;;;45.87;25.40;;;;;;;;;;4996042;28;20446;-69
2023/05/06 07:07:21;;;;;;;43.83;24.40;;;;;;;;;;4995589;28;20455;-69
2023/05/06 07:09:49;;;;;;;45.83;25.20;;;;;;;;;;4995384;28;20498;-69
2023/05/06 07:12:17;;;;;;;44.77;25.50;;;;;;;;;;4995383;28;20451;-69
2023/05/06 07:14:44;;;;;;;41.57;23.97;;;;;;;;;;4995155;28;20482;-70
2023/05/06 07:17:11;;;;;;;47.63;25.07;;;;;;;;;;4995516;28;20465;-69
2023/05/06 07:19:38;;;;;;;41.70;25.20;;;;;;;;;;4995044;28;20446;-70
2023/05/06 07:22:05;;;;;;;38.40;24.30;;;;;;;;;;4995082;28;20447;-69
2023/05/06 07:24:33;;;;;;;41.57;26.00;;;;;;;;;;4995124;28;20494;-69
2023/05/06 07:27:03;;;;;;;48.90;29.33;;;;;;;;;;4995363;28;20526;-69
2023/05/06 07:29:30;;;;;;;42.50;27.60;;;;;;;;;;4995324;28;20474;-70
2023/05/06 07:31:57;;;;;;;47.80;28.73;;;;;;;;;;4995210;28;20446;-69
2023/05/06 07:34:24;;;;;;;46.50;29.67;;;;;;;;;;4995299;28;20486;-69
2023/05/06 07:36:51;;;;;;;61.47;33.13;;;;;;;;;;4994437;28;20453;-69
2023/05/06 07:39:19;;;;;;;50.87;29.67;;;;;;;;;;4995339;28;20439;-68
2023/05/06 07:41:47;;;;;;;51.00;29.53;;;;;;;;;;5007879;28;20437;-69
2023/05/06 07:44:16;;;;;;;44.80;29.37;;;;;;;;;;5014352;28;20450;-69
2023/05/06 07:46:43;;;;;;;42.47;27.80;;;;;;;;;;5014565;28;20914;-68
2023/05/06 07:49:10;;;;;;;34.00;24.83;;;;;;;;;;5014569;28;20443;-68
2023/05/06 07:51:37;;;;;;;34.93;25.97;;;;;;;;;;5014323;28;20437;-69
2023/05/06 07:54:05;;;;;;;41.47;25.47;;;;;;;;;;5014402;28;20505;-68
2023/05/06 07:56:32;;;;;;;45.30;27.67;;;;;;;;;;5014431;28;20446;-68
2023/05/06 07:59:00;;;;;;;37.67;24.87;;;;;;;;;;5014480;28;20449;-69
2023/05/06 08:01:28;;;;;;;40.93;32.00;;;;;;;;;;5014193;28;20474;-70
2023/05/06 08:03:56;;;;;;;40.03;28.17;;;;;;;;;;5014226;28;20517;-68
2023/05/06 08:06:23;;;;;;;32.23;22.70;;;;;;;;;;5014119;28;20447;-68
2023/05/06 08:08:50;;;;;;;30.27;22.10;;;;;;;;;;5014443;28;20538;-70
2023/05/06 08:11:18;;;;;;;27.97;20.17;;;;;;;;;;5013677;28;20982;-68
2023/05/06 08:13:45;;;;;;;28.10;21.17;;;;;;;;;;5013955;28;20478;-71
2023/05/06 08:16:13;;;;;;;30.30;21.10;;;;;;;;;;5014123;28;20448;-69
2023/05/06 08:18:41;;;;;;;28.80;21.30;;;;;;;;;;5013920;28;20467;-68
2023/05/06 08:21:08;;;;;;;26.70;19.93;;;;;;;;;;5014148;28;20440;-70
2023/05/06 08:23:36;;;;;;;25.23;20.10;;;;;;;;;;5013476;28;20545;-71
2023/05/06 08:26:03;;;;;;;28.23;19.73;;;;;;;;;;5013828;28;20458;-69
2023/05/06 08:28:30;;;;;;;27.83;21.03;;;;;;;;;;5013845;28;20538;-71
2023/05/06 08:30:57;;;;;;;29.27;19.43;;;;;;;;;;5013447;28;20528;-70
2023/05/06 08:33:24;;;;;;;26.73;20.50;;;;;;;;;;5013390;28;20489;-68
2023/05/06 08:35:53;;;;;;;25.47;19.60;;;;;;;;;;5013269;28;20451;-69
2023/05/06 08:38:20;;;;;;;24.70;19.50;;;;;;;;;;5013403;28;20483;-70
2023/05/06 08:40:49;;;;;;;25.50;18.57;;;;;;;;;;5013628;28;20452;-68
2023/05/06 08:43:19;;;;;;;26.50;19.87;;;;;;;;;;5013252;28;20454;-69
2023/05/06 08:45:46;;;;;;;25.50;20.10;;;;;;;;;;5013633;28;20874;-68
2023/05/06 08:48:14;;;;;;;25.23;19.90;;;;;;;;;;5013304;28;20442;-69
2023/05/06 08:50:42;;;;;;;26.13;20.50;;;;;;;;;;5013807;28;20455;-68
2023/05/06 08:53:12;;;;;;;27.47;21.30;;;;;;;;;;5013337;28;20446;-70
2023/05/06 08:55:41;;;;;;;28.27;20.83;;;;;;;;;;5013616;28;20430;-71
2023/05/06 08:58:09;;;;;;;26.07;19.07;;;;;;;;;;5013231;28;20454;-72
2023/05/06 09:00:36;;;;;;;23.53;19.53;;;;;;;;;;5013547;28;20455;-69
2023/05/06 09:03:03;;;;;;;58.83;47.77;;;;;;;;;;5013557;28;20439;-69
2023/05/06 09:05:31;;;;;;;28.57;21.83;;;;;;;;;;5013151;28;20496;-70
2023/05/06 09:07:58;;;;;;;25.43;21.23;;;;;;;;;;5013215;28;20559;-70
2023/05/06 09:10:31;;;;;;;23.17;19.70;;;;;;;;;;5013573;28;20511;-69
2023/05/06 09:12:58;;;;;;;29.60;22.80;;;;;;;;;;5013512;28;20429;-69
2023/05/06 09:15:26;;;;;;;28.83;21.90;;;;;;;;;;5013059;28;20511;-70
2023/05/06 09:17:53;;;;;;;27.87;20.57;;;;;;;;;;5013049;28;20448;-70
2023/05/06 09:20:21;;;;;;;24.70;19.77;;;;;;;;;;5013480;28;20531;-70
2023/05/06 09:22:48;;;;;;;29.70;21.40;;;;;;;;;;5014860;28;20446;-70
2023/05/06 09:25:15;;;;;;;26.07;21.57;;;;;;;;;;5017125;28;20447;-70
2023/05/06 09:27:44;;;;;;;27.90;21.70;;;;;;;;;;5016690;28;20454;-70
2023/05/06 09:30:12;;;;;;;24.97;20.73;;;;;;;;;;5017147;28;20450;-70
2023/05/06 09:32:39;;;;;;;26.77;21.00;;;;;;;;;;5017084;28;20439;-69
2023/05/06 09:35:07;;;;;;;26.33;22.20;;;;;;;;;;5017145;28;20500;-69
2023/05/06 09:37:34;;;;;;;25.10;20.97;;;;;;;;;;5016377;28;20474;-70
2023/05/06 09:40:01;;;;;;;23.60;21.10;;;;;;;;;;5016956;28;20456;-69
2023/05/06 09:42:29;;;;;;;25.00;21.77;;;;;;;;;;5016774;28;20445;-70
2023/05/06 09:44:59;;;;;;;23.03;20.63;;;;;;;;;;5016762;28;20452;-69
2023/05/06 09:47:27;;;;;;;28.67;22.90;;;;;;;;;;5017101;28;20453;-69
2023/05/06 09:49:58;;;;;;;26.60;20.63;;;;;;;;;;5016449;28;20462;-69
2023/05/06 09:52:25;;;;;;;27.07;21.10;;;;;;;;;;5016512;28;20430;-69
2023/05/06 09:54:53;;;;;;;26.37;22.17;;;;;;;;;;5016373;28;20481;-69
2023/05/06 09:57:22;;;;;;;27.63;22.40;;;;;;;;;;5016490;28;20457;-69
2023/05/06 09:59:49;;;;;;;26.40;20.90;;;;;;;;;;5016813;28;20449;-69
2023/05/06 10:02:19;;;;;;;29.10;20.83;;;;;;;;;;5016194;28;20950;-69
2023/05/06 10:04:46;;;;;;;26.50;20.37;;;;;;;;;;5017061;28;20799;-70
2023/05/06 10:07:15;;;;;;;26.70;21.40;;;;;;;;;;5016048;28;20464;-70
2023/05/06 10:09:42;;;;;;;27.10;21.10;;;;;;;;;;5016412;28;20500;-69
2023/05/06 10:12:10;;;;;;;24.13;21.60;;;;;;;;;;5016431;28;20445;-70
2023/05/06 10:14:43;;;;;;;26.17;22.40;;;;;;;;;;5016237;28;20509;-69
2023/05/06 10:17:12;;;;;;;30.60;22.07;;;;;;;;;;5016424;28;20435;-69
2023/05/06 10:19:41;;;;;;;28.77;23.70;;;;;;;;;;5016131;28;20443;-69
2023/05/06 10:22:11;;;;;;;26.03;21.70;;;;;;;;;;5016270;28;20915;-70
2023/05/06 10:24:47;;;;;;;26.97;22.17;;;;;;;;;;5015794;28;20928;-69
2023/05/06 10:27:14;;;;;;;27.93;23.77;;;;;;;;;;5016238;28;20456;-69
2023/05/06 10:29:42;;;;;;;27.70;22.80;;;;;;;;;;5015639;28;20975;-69
2023/05/06 10:32:10;;;;;;;28.70;22.87;;;;;;;;;;5016073;28;20437;-70
2023/05/06 10:34:41;;;;;;;25.43;22.60;;;;;;;;;;5014231;28;21003;-69
2023/05/06 10:37:11;;;;;;;29.90;23.23;;;;;;;;;;5015488;28;20957;-71
2023/05/06 10:39:38;;;;;;;29.60;21.73;;;;;;;;;;5015540;28;20453;-70
2023/05/06 10:42:05;;;;;;;35.07;25.33;;;;;;;;;;5015561;28;20473;-70
2023/05/06 10:44:51;;;;;;;31.03;23.40;;;;;;;;;;5014728;28;20441;-71
2023/05/06 10:47:18;;;;;;;30.13;22.70;;;;;;;;;;5015658;28;20441;-70
2023/05/06 10:50:08;;;;;;;32.27;23.60;;;;;;;;;;5015224;28;20942;-71
2023/05/06 10:52:46;;;;;;;33.43;24.50;;;;;;;;;;5015375;28;20450;-71
2023/05/06 10:55:26;;;;;;;32.97;23.90;;;;;;;;;;5016097;28;20473;-70
2023/05/06 10:57:55;;;;;;;34.57;24.77;;;;;;;;;;5015423;28;20432;-70
2023/05/06 11:00:22;;;;;;;31.37;22.90;;;;;;;;;;5015602;28;20446;-71
2023/05/06 11:02:51;;;;;;;27.90;21.27;;;;;;;;;;5015236;28;20450;-70
2023/05/06 11:05:19;;;;;;;26.60;19.93;;;;;;;;;;5014967;28;20932;-70
2023/05/06 11:07:50;;;;;;;23.20;17.60;;;;;;;;;;5015818;28;20550;-70
2023/05/06 11:10:31;;;;;;;26.90;19.67;;;;;;;;;;5014891;28;20924;-70
2023/05/06 11:12:59;;;;;;;26.70;20.10;;;;;;;;;;5015443;28;20427;-71
2023/05/06 11:15:27;;;;;;;27.50;20.13;;;;;;;;;;5005185;28;20521;-70
2023/05/06 11:17:55;;;;;;;24.60;20.17;;;;;;;;;;4995424;28;20494;-70
2023/05/06 11:20:22;;;;;;;23.10;18.50;;;;;;;;;;4995084;28;20475;-69
2023/05/06 11:22:51;;;;;;;20.07;17.87;;;;;;;;;;4995313;28;20845;-70
2023/05/06 11:25:39;;;;;;;21.93;17.40;;;;;;;;;;4994878;28;20947;-70
2023/05/06 11:28:11;;;;;;;20.00;17.30;;;;;;;;;;4995063;28;20442;-70
2023/05/06 11:30:41;;;;;;;26.23;16.20;;;;;;;;;;4994993;28;20447;-70
2023/05/06 11:33:08;;;;;;;18.27;15.47;;;;;;;;;;4995895;28;20437;-70
2023/05/06 11:35:36;;;;;;;22.43;17.03;;;;;;;;;;4994764;28;20479;-70
2023/05/06 11:38:04;;;;;;;20.00;15.30;;;;;;;;;;4995188;28;20478;-70
2023/05/06 11:40:32;;;;;;;19.67;14.63;;;;;;;;;;4994623;28;20914;-70
2023/05/06 11:43:10;;;;;;;20.00;16.53;;;;;;;;;;4994972;28;20812;-70
2023/05/06 11:45:40;;;;;;;20.93;17.97;;;;;;;;;;4994381;28;20443;-70
2023/05/06 11:48:08;;;;;;;22.70;16.97;;;;;;;;;;4994961;28;20448;-70
2023/05/06 11:50:35;;;;;;;26.00;17.10;;;;;;;;;;4994548;28;20542;-71
2023/05/06 11:53:02;;;;;;;26.40;18.60;;;;;;;;;;4994826;28;20590;-70
2023/05/06 11:55:31;;;;;;;25.13;16.80;;;;;;;;;;4994281;28;20476;-70
2023/05/06 11:57:58;;;;;;;23.60;16.70;;;;;;;;;;4995015;28;20436;-70
2023/05/06 12:00:25;;;;;;;26.90;17.20;;;;;;;;;;4994586;28;20448;-70
2023/05/06 12:02:55;;;;;;;27.57;16.80;;;;;;;;;;4994268;28;20523;-70
2023/05/06 12:05:23;;;;;;;24.63;16.23;;;;;;;;;;4994194;28;20460;-70
2023/05/06 12:07:50;;;;;;;23.87;17.50;;;;;;;;;;4994751;28;20455;-70
2023/05/06 12:10:19;;;;;;;23.47;16.83;;;;;;;;;;4994055;28;20483;-70
2023/05/06 12:12:47;;;;;;;26.03;17.73;;;;;;;;;;4993901;28;20527;-70
2023/05/06 12:15:15;;;;;;;24.60;16.83;;;;;;;;;;4993646;28;20996;-70
2023/05/06 12:17:42;;;;;;;21.70;16.17;;;;;;;;;;4994229;28;20471;-70
2023/05/06 12:20:11;;;;;;;23.30;17.43;;;;;;;;;;4994250;28;20540;-70
2023/05/06 12:22:39;;;;;;;24.23;15.87;;;;;;;;;;4993832;28;20448;-70
2023/05/06 12:25:13;;;;;;;21.47;16.20;;;;;;;;;;4993886;28;20452;-70
2023/05/06 12:27:40;;;;;;;20.10;14.40;;;;;;;;;;4993952;28;20431;-70
2023/05/06 12:30:10;;;;;;;19.00;14.67;;;;;;;;;;4994052;28;20744;-70
2023/05/06 12:32:56;;;;;;;19.17;13.80;;;;;;;;;;4993702;28;20930;-71
2023/05/06 12:35:28;;;;;;;17.00;12.73;;;;;;;;;;4994208;28;20961;-70
2023/05/06 12:37:55;;;;;;;15.90;12.23;;;;;;;;;;4993771;28;20534;-70
2023/05/06 12:40:22;;;;;;;17.53;12.97;;;;;;;;;;4993608;28;20922;-70
2023/05/06 12:42:54;;;;;;;20.57;12.60;;;;;;;;;;4993909;28;20470;-70
2023/05/06 12:45:23;;;;;;;15.43;11.63;;;;;;;;;;4993919;28;20441;-70
2023/05/06 12:47:54;;;;;;;17.43;12.00;;;;;;;;;;4993597;28;20538;-70
2023/05/06 12:50:35;;;;;;;15.80;12.20;;;;;;;;;;4994068;28;20425;-70
2023/05/06 12:53:02;;;;;;;18.10;14.00;;;;;;;;;;4993506;28;20447;-70
2023/05/06 12:55:30;;;;;;;17.67;13.03;;;;;;;;;;4993981;28;20480;-70
2023/05/06 12:57:58;;;;;;;15.37;12.20;;;;;;;;;;4993187;28;20434;-69
2023/05/06 13:00:26;;;;;;;15.97;11.43;;;;;;;;;;4993408;28;20510;-70
2023/05/06 13:02:54;;;;;;;12.87;11.17;;;;;;;;;;4994146;28;20526;-68
2023/05/06 13:05:21;;;;;;;15.00;12.47;;;;;;;;;;4993350;28;20461;-69
2023/05/06 13:07:50;;;;;;;15.50;12.37;;;;;;;;;;4993603;28;20454;-68
2023/05/06 13:10:17;;;;;;;15.43;11.10;;;;;;;;;;4993339;28;20493;-69
2023/05/06 13:12:44;;;;;;;13.93;12.00;;;;;;;;;;4993862;28;20448;-69
2023/05/06 13:15:11;;;;;;;17.33;13.00;;;;;;;;;;4993362;28;20472;-68
2023/05/06 13:17:40;;;;;;;15.03;12.67;;;;;;;;;;4993502;28;20530;-69
2023/05/06 13:20:07;;;;;;;15.33;13.07;;;;;;;;;;4993741;28;20452;-68
2023/05/06 13:22:35;;;;;;;14.10;12.03;;;;;;;;;;4993721;28;20860;-68
2023/05/06 13:25:02;;;;;;;18.17;14.03;;;;;;;;;;4994099;28;20845;-69
2023/05/06 13:27:30;;;;;;;18.13;14.17;;;;;;;;;;4993477;28;20446;-68
2023/05/06 13:29:57;;;;;;;16.03;14.33;;;;;;;;;;4994056;28;20810;-69
2023/05/06 13:32:24;;;;;;;15.50;11.70;;;;;;;;;;4993921;28;20441;-69
2023/05/06 13:34:53;;;;;;;9.50;8.50;;;;;;;;;;4993607;28;20477;-68
2023/05/06 13:37:20;;;;;;;11.40;10.30;;;;;;;;;;4993328;28;20491;-68
2023/05/06 13:39:47;;;;;;;11.03;8.60;;;;;;;;;;4993665;28;20450;-68
2023/05/06 13:42:14;;;;;;;14.10;12.10;;;;;;;;;;4993332;28;20451;-68
2023/05/06 13:44:41;;;;;;;14.23;12.83;;;;;;;;;;4993554;28;20440;-68
2023/05/06 13:47:09;;;;;;;14.57;13.13;;;;;;;;;;4993413;28;20446;-69
2023/05/06 13:49:36;;;;;;;12.93;11.50;;;;;;;;;;4993547;28;20524;-69
2023/05/06 13:52:04;;;;;;;14.60;11.80;;;;;;;;;;4993450;28;20795;-68
2023/05/06 13:54:32;;;;;;;13.83;12.33;;;;;;;;;;4993418;28;20481;-69
2023/05/06 13:57:00;;;;;;;13.80;12.20;;;;;;;;;;4992990;28;20588;-69
2023/05/06 13:59:27;;;;;;;16.00;11.50;;;;;;;;;;4992970;28;20450;-69
2023/05/06 14:01:54;;;;;;;12.30;11.10;;;;;;;;;;4993496;28;20465;-69
2023/05/06 14:04:21;;;;;;;12.37;10.33;;;;;;;;;;4993301;28;20782;-69
2023/05/06 14:06:49;;;;;;;14.00;11.40;;;;;;;;;;4993129;28;20461;-69
2023/05/06 14:09:17;;;;;;;14.67;12.27;;;;;;;;;;4995171;28;20439;-69
2023/05/06 14:11:45;;;;;;;15.87;13.57;;;;;;;;;;4996629;28;20449;-69
2023/05/06 14:14:12;;;;;;;11.03;9.93;;;;;;;;;;4996359;28;20457;-69
2023/05/06 14:16:39;;;;;;;13.00;10.70;;;;;;;;;;4996076;28;20480;-68
2023/05/06 14:19:06;;;;;;;12.73;10.70;;;;;;;;;;4997173;28;20444;-68
2023/05/06 14:21:34;;;;;;;13.60;10.50;;;;;;;;;;4997232;28;20458;-70